To NAV CANADA Home Page Login to a new session Search on AWWS site Feedback and Comments Disclaimer Vers la page française équivalente Tips FAQ What's new on the site To the Forecasts and Observations / NOTAM section To "File a Flight Plan" website Publications and other links Update of the User's profile FIC Telephone Numbers My Weather Data Folder Route Weather Data Regional Weather Data Local Weather Data To the Forecasts and Observations / NOTAM section
Request Generated 09/29/2016 at 11:49:20 UTC . Weather information available at that time is displayed.

METAR/TAF

HAVRE ST-PIERRE/QC    (show WxCam)

METAR CYGV 291100Z AUTO 00000KT 9SM FEW240 00/00 A3056 RMK SLP352=
METAR CYGV 291000Z AUTO 00000KT 9SM SCT240 00/00 A3056 RMK SLP351=
METAR CYGV 290900Z AUTO 36006KT 9SM FEW250 02/02 A3055 RMK SLP350=

TAF CYGV 290738Z 2908/2920 VRB03KT P6SM SKC TEMPO 2908/2913 5SM BR
PROB30 2908/2913 3/4SM BR
FM291500 23008KT P6SM SKC
BECMG 2916/2918 26015KT
RMK FCST BASED ON AUTO OBS. NXT FCST BY 291400Z=
Your time UTC time
Weather data provided by Environment Canada and NAV CANADA